Time;durP1;ratioP1;P1;durP2;ratioP2;P2;SDS_P1;SDS_P2;PMS_P1;PMS_P2;Temp;Humidity;BMP_temperature;BMP_pressure;BME280_temperature;BME280_humidity;BME280_pressure;Samples;Min_cycle;Max_cycle;Signal;HPM_P1;HPM_P2
2023/02/20 00:01:51;;;;;;;18.25;7.97;;;;;;;-146.27;100.00;48395.59;5086992;28;20020;-73
2023/02/20 00:04:17;;;;;;;19.05;7.88;;;;;;;-146.27;100.00;48359.75;5090714;28;20094;-71
2023/02/20 00:06:43;;;;;;;20.50;8.90;;;;;;;-146.27;100.00;48363.75;5091403;28;20119;-73
2023/02/20 00:09:08;;;;;;;22.42;8.98;;;;;;;-146.27;100.00;48365.72;5085336;28;20102;-72
2023/02/20 00:11:33;;;;;;;23.60;8.27;;;;;;;-146.27;100.00;48399.59;5093338;28;20024;-71
2023/02/20 00:13:59;;;;;;;26.08;9.55;;;;;;;-146.27;100.00;48389.63;5091724;28;20111;-72
2023/02/20 00:16:24;;;;;;;16.15;8.00;;;;;;;-146.27;100.00;48371.69;5080021;28;20095;-72
2023/02/20 00:18:50;;;;;;;16.30;8.88;;;;;;;-146.27;100.00;48391.63;5076798;28;20032;-74
2023/02/20 00:21:15;;;;;;;21.40;8.10;;;;;;;-146.27;100.00;48397.59;5087788;28;20388;-73
2023/02/20 00:23:40;;;;;;;21.50;7.53;;;;;;;-146.27;100.00;48351.78;5075360;28;20116;-72
2023/02/20 00:26:10;;;;;;;26.42;8.10;;;;;;;-146.27;100.00;48375.69;5086747;28;20052;-73
2023/02/20 00:28:40;;;;;;;21.45;8.35;;;;;;;-146.27;100.00;48379.66;5092921;28;20332;-72
2023/02/20 00:31:07;;;;;;;17.08;8.27;;;;;;;-146.27;100.00;48403.56;5082036;28;20027;-72
2023/02/20 00:33:32;;;;;;;23.65;9.00;;;;;;;-146.27;100.00;48375.69;5091795;28;20126;-72
2023/02/20 00:35:58;;;;;;;24.48;9.18;;;;;;;-146.27;100.00;48373.69;5079968;28;20086;-71
2023/02/20 00:38:23;;;;;;;26.70;8.95;;;;;;;-146.27;100.00;48373.69;5080045;28;20036;-71
2023/02/20 00:40:48;;;;;;;21.17;8.30;;;;;;;-146.27;100.00;48359.75;5087283;28;20518;-71
2023/02/20 00:43:14;;;;;;;20.13;8.60;;;;;;;-146.27;100.00;48389.63;5085711;28;20037;-72
2023/02/20 00:45:39;;;;;;;19.30;8.93;;;;;;;-146.27;100.00;48393.63;5091405;28;20036;-69
2023/02/20 00:48:05;;;;;;;29.38;8.73;;;;;;;-146.27;100.00;48387.63;5092483;28;20020;-74
2023/02/20 00:50:30;;;;;;;30.95;9.05;;;;;;;-146.27;100.00;48371.69;5085383;28;20032;-75
2023/02/20 00:52:56;;;;;;;28.35;9.38;;;;;;;-146.27;100.00;48359.75;5090904;28;20494;-71
2023/02/20 00:55:21;;;;;;;20.90;8.50;;;;;;;-146.27;100.00;48379.66;5083678;28;20031;-72
2023/02/20 00:57:46;;;;;;;29.27;10.13;;;;;;;-146.27;100.00;48371.69;5084293;28;20030;-72
2023/02/20 01:00:20;;;;;;;29.23;9.70;;;;;;;-146.27;100.00;48415.53;5090001;28;22037;-72
2023/02/20 01:02:45;;;;;;;;;;;;;;;-146.27;100.00;48367.72;5091731;28;20082;-71
2023/02/20 01:05:11;;;;;;;37.72;9.80;;;;;;;-146.27;100.00;48363.75;5086865;28;20360;-71
2023/02/20 01:07:36;;;;;;;27.95;10.50;;;;;;;-146.27;100.00;48361.75;5080838;28;20082;-72
2023/02/20 01:10:02;;;;;;;27.85;10.68;;;;;;;-146.27;100.00;48375.69;5084623;28;20393;-71
2023/02/20 01:12:27;;;;;;;29.50;10.68;;;;;;;-146.27;100.00;48373.69;5081712;28;20399;-71
2023/02/20 01:14:53;;;;;;;36.25;11.38;;;;;;;-146.27;100.00;48411.53;5085116;28;20471;-72
2023/02/20 01:17:18;;;;;;;34.38;11.05;;;;;;;-146.27;100.00;48365.72;5092903;28;20122;-72
2023/02/20 01:19:43;;;;;;;32.75;12.43;;;;;;;-146.27;100.00;48383.66;5084849;28;20016;-71
2023/02/20 01:22:09;;;;;;;36.05;11.52;;;;;;;-146.27;100.00;48383.66;5088372;28;20115;-73
2023/02/20 01:24:34;;;;;;;46.38;14.35;;;;;;;-146.27;100.00;48393.63;5090483;28;20055;-72
2023/02/20 01:27:00;;;;;;;55.67;14.48;;;;;;;-146.27;100.00;48385.66;5088789;28;20420;-70
2023/02/20 01:29:25;;;;;;;36.97;13.70;;;;;;;-146.27;100.00;48383.66;5091445;28;20464;-71
2023/02/20 01:31:51;;;;;;;45.95;14.60;;;;;;;-146.27;100.00;48395.59;5090474;28;20032;-72
2023/02/20 01:34:18;;;;;;;47.42;16.55;;;;;;;-146.27;100.00;48381.66;5078335;28;20056;-72
2023/02/20 01:36:48;;;;;;;37.60;14.77;;;;;;;-146.27;100.00;48383.66;5084351;28;20456;-72
2023/02/20 01:39:16;;;;;;;40.80;14.32;;;;;;;-146.27;100.00;48359.75;5087489;28;20020;-71
2023/02/20 01:41:42;;;;;;;37.42;15.52;;;;;;;-146.27;100.00;48331.88;5091280;28;20081;-71
2023/02/20 01:44:17;;;;;;;46.17;15.88;;;;;;;-146.27;100.00;48391.63;5090159;28;20418;-71
2023/02/20 01:46:47;;;;;;;43.70;15.15;;;;;;;-146.27;100.00;48349.78;5092204;28;20032;-72
2023/02/20 01:49:16;;;;;;;58.90;17.80;;;;;;;-146.27;100.00;48347.81;5085485;28;20036;-71
2023/02/20 01:51:49;;;;;;;47.45;16.08;;;;;;;-146.27;100.00;48391.63;5086949;28;20027;-73
2023/02/20 01:54:18;;;;;;;45.83;16.10;;;;;;;-146.27;100.00;48391.63;5091868;28;20040;-70
2023/02/20 01:56:46;;;;;;;46.10;16.83;;;;;;;-146.27;100.00;48353.78;5089725;28;20020;-71
2023/02/20 01:59:13;;;;;;;46.70;16.88;;;;;;;-146.27;100.00;48373.69;5090886;28;20111;-72
2023/02/20 02:01:38;;;;;;;53.53;17.42;;;;;;;-146.27;100.00;48375.69;5085543;28;20028;-71
2023/02/20 02:04:08;;;;;;;49.35;20.02;;;;;;;-146.27;100.00;48371.69;5090816;28;20106;-71
2023/02/20 02:06:37;;;;;;;61.45;16.80;;;;;;;-146.27;100.00;48391.63;5088588;28;20052;-71
2023/02/20 02:09:12;;;;;;;58.47;17.00;;;;;;;-146.27;100.00;48387.63;5083892;28;20032;-72
2023/02/20 02:11:38;;;;;;;40.53;15.43;;;;;;;-146.27;100.00;48353.78;5089560;28;20031;-72
2023/02/20 02:14:03;;;;;;;50.75;17.52;;;;;;;-146.27;100.00;48393.63;5089822;28;20505;-71
2023/02/20 02:16:47;;;;;;;44.00;15.50;;;;;;;-146.27;100.00;48373.69;5088366;28;20204;-72
2023/02/20 02:19:31;;;;;;;;;;;;;;;-146.27;100.00;48319.91;5085044;28;20477;-71
2023/02/20 02:22:33;;;;;;;43.55;15.98;;;;;;;-146.27;100.00;48423.50;5089726;28;19934;-72
2023/02/20 02:25:20;;;;;;;39.70;15.10;;;;;;;-146.27;100.00;48333.88;5089594;28;20186;-72
2023/02/20 02:28:19;;;;;;;49.92;15.52;;;;;;;-146.27;100.00;48407.56;5081722;28;20375;-71
2023/02/20 02:31:03;;;;;;;48.25;15.40;;;;;;;-146.27;100.00;48383.66;5089491;28;20029;-71
2023/02/20 02:33:44;;;;;;;45.25;16.25;;;;;;;-146.27;100.00;48383.66;5090127;28;20027;-71
2023/02/20 02:37:06;;;;;;;38.45;16.17;;;;;;;-146.27;100.00;48359.75;5087656;28;20032;-71
2023/02/20 02:39:38;;;;;;;40.03;14.75;;;;;;;-146.27;100.00;48375.69;5046791;28;20471;-71
2023/02/20 02:42:06;;;;;;;49.97;14.82;;;;;;;-146.27;100.00;48393.63;5030137;28;20028;-73
2023/02/20 02:44:49;;;;;;;40.20;15.75;;;;;;;-146.27;100.00;48339.84;5066672;28;20441;-72
2023/02/20 02:47:43;;;;;;;46.00;15.00;;;;;;;-146.27;100.00;48387.63;5091178;28;20493;-71
2023/02/20 02:50:20;;;;;;;38.70;13.23;;;;;;;-146.27;100.00;48395.59;5088854;28;20526;-71
2023/02/20 02:52:47;;;;;;;58.20;15.10;;;;;;;-146.27;100.00;48385.66;5086331;28;20053;-70
2023/02/20 02:55:22;;;;;;;31.85;12.20;;;;;;;-146.27;100.00;48375.69;5080797;28;20021;-72
2023/02/20 02:57:48;;;;;;;49.92;14.77;;;;;;;-146.27;100.00;48377.69;5086562;28;20502;-71
2023/02/20 03:00:38;;;;;;;39.67;13.70;;;;;;;-146.27;100.00;48371.69;5086445;28;20028;-72
2023/02/20 03:03:06;;;;;;;41.80;12.30;;;;;;;-146.27;100.00;48383.66;5085113;28;20052;-73
2023/02/20 03:05:52;;;;;;;39.22;12.50;;;;;;;-146.27;100.00;48379.66;5093024;28;20484;-71
2023/02/20 03:08:43;;;;;;;44.53;13.52;;;;;;;-146.27;100.00;48385.66;5089464;28;20044;-71
2023/02/20 03:11:14;;;;;;;48.60;13.88;;;;;;;-146.27;100.00;48369.72;5093607;28;20406;-72
2023/02/20 03:16:47;;;;;;;44.97;12.43;;;;;;;-146.27;100.00;48381.66;5091835;28;20047;-71
2023/02/20 03:19:16;;;;;;;38.50;11.23;;;;;;;-146.27;100.00;48345.81;5092765;28;20028;-72
2023/02/20 03:21:46;;;;;;;38.08;10.63;;;;;;;-146.27;100.00;48355.78;5092931;28;20024;-70
2023/02/20 03:24:15;;;;;;;29.77;10.63;;;;;;;-146.27;100.00;48403.56;5093497;28;20016;-72
2023/02/20 03:26:42;;;;;;;29.95;11.70;;;;;;;-146.27;100.00;48381.66;5086689;28;20456;-71
2023/02/20 03:29:15;;;;;;;34.08;9.95;;;;;;;-146.27;100.00;48351.78;5089360;28;20460;-71
2023/02/20 03:31:49;;;;;;;41.85;9.57;;;;;;;-146.27;100.00;48371.69;5077977;28;20111;-72
2023/02/20 03:45:44;;;;;;;44.67;12.77;;;;;;;-146.27;100.00;48379.66;5089614;28;20433;-71
2023/02/20 03:48:36;;;;;;;35.20;11.60;;;;;;;-146.27;100.00;48381.66;5086096;28;20057;-71
2023/02/20 03:53:46;;;;;;;33.95;11.52;;;;;;;-146.27;100.00;48353.78;5092674;28;20043;-70
2023/02/20 03:56:19;;;;;;;32.97;12.07;;;;;;;-146.27;100.00;48375.69;5090745;28;20028;-72
2023/02/20 03:58:50;;;;;;;39.70;12.70;;;;;;;-146.27;100.00;48403.56;5088217;28;20023;-73
2023/02/20 04:01:18;;;;;;;35.60;12.27;;;;;;;-146.27;100.00;48363.75;5086988;28;20028;-72
2023/02/20 04:03:47;;;;;;;39.50;11.52;;;;;;;-146.27;100.00;48355.78;5087490;28;20071;-73
2023/02/20 04:06:15;;;;;;;35.85;12.18;;;;;;;-146.27;100.00;48379.66;5090575;28;20118;-71
2023/02/20 04:08:54;;;;;;;40.28;13.48;;;;;;;-146.27;100.00;48359.75;5092984;28;20039;-71
2023/02/20 04:11:33;;;;;;;32.58;11.65;;;;;;;-146.27;100.00;48367.72;5092706;28;20089;-72
2023/02/20 04:14:01;;;;;;;43.03;13.07;;;;;;;-146.27;100.00;48353.78;5090962;28;20058;-73
2023/02/20 04:16:26;;;;;;;39.90;12.60;;;;;;;-146.27;100.00;48345.81;5091592;28;20487;-70
2023/02/20 04:18:52;;;;;;;40.35;11.23;;;;;;;-146.27;100.00;48351.78;5085340;28;20024;-72
2023/02/20 04:21:27;;;;;;;38.38;11.57;;;;;;;-146.27;100.00;48369.72;5084571;28;20031;-71
2023/02/20 04:24:07;;;;;;;37.75;12.10;;;;;;;-146.27;100.00;48367.72;5085995;28;20012;-72
2023/02/20 04:26:34;;;;;;;35.60;12.15;;;;;;;-146.27;100.00;48351.78;5092789;28;20062;-72
2023/02/20 04:28:59;;;;;;;28.45;11.05;;;;;;;-146.27;100.00;48407.56;5088583;28;20028;-71
2023/02/20 04:31:26;;;;;;;32.33;10.63;;;;;;;-146.27;100.00;48339.84;5091153;28;20077;-71
2023/02/20 04:33:52;;;;;;;33.10;11.32;;;;;;;-146.27;100.00;48367.72;5093509;28;20654;-71
2023/02/20 04:36:18;;;;;;;29.52;10.88;;;;;;;-146.27;100.00;48375.69;5093251;28;20067;-71
2023/02/20 04:38:43;;;;;;;34.30;12.25;;;;;;;-146.27;100.00;48375.69;5093674;28;20436;-72
2023/02/20 04:41:09;;;;;;;35.83;10.88;;;;;;;-146.27;100.00;48369.72;5080154;28;20032;-71
2023/02/20 04:43:35;;;;;;;33.97;10.93;;;;;;;-146.27;100.00;48337.84;5086222;28;20483;-71
2023/02/20 04:46:00;;;;;;;40.25;10.40;;;;;;;-146.27;100.00;48371.69;5087288;28;20027;-72
2023/02/20 04:48:25;;;;;;;26.83;10.07;;;;;;;-146.27;100.00;48347.81;5081129;28;20039;-72
2023/02/20 04:50:51;;;;;;;40.22;11.45;;;;;;;-146.27;100.00;48373.69;5085969;28;20020;-71
2023/02/20 04:53:16;;;;;;;31.70;9.98;;;;;;;-146.27;100.00;48363.75;5091795;28;20032;-70
2023/02/20 04:55:41;;;;;;;30.70;10.68;;;;;;;-146.27;100.00;48363.75;5080233;28;20103;-73
2023/02/20 04:58:07;;;;;;;22.27;9.88;;;;;;;-146.27;100.00;48359.75;5086192;28;20035;-71
2023/02/20 05:00:32;;;;;;;23.88;11.35;;;;;;;-146.27;100.00;48367.72;5089346;28;20024;-72
2023/02/20 05:02:58;;;;;;;35.45;10.70;;;;;;;-146.27;100.00;48365.72;5081238;28;20511;-71
2023/02/20 05:05:28;;;;;;;30.23;12.40;;;;;;;-146.27;100.00;48389.63;5081260;28;20128;-71
2023/02/20 05:07:59;;;;;;;35.33;10.45;;;;;;;-146.27;100.00;48345.81;5091360;28;20563;-71
2023/02/20 05:10:25;;;;;;;27.02;11.35;;;;;;;-146.27;100.00;48391.63;5083599;28;20385;-71
2023/02/20 05:12:51;;;;;;;29.90;11.05;;;;;;;-146.27;100.00;48367.72;5079148;28;20417;-70
2023/02/20 05:15:18;;;;;;;38.90;11.90;;;;;;;-146.27;100.00;48365.72;5091938;28;20113;-71
2023/02/20 05:17:44;;;;;;;31.85;11.70;;;;;;;-146.27;100.00;48355.78;5078199;28;20024;-71
2023/02/20 05:20:10;;;;;;;32.35;10.65;;;;;;;-146.27;100.00;48395.59;5082617;28;20028;-73
2023/02/20 05:22:35;;;;;;;33.42;11.43;;;;;;;-146.27;100.00;48381.66;5078750;28;20039;-72
2023/02/20 05:25:01;;;;;;;41.45;13.15;;;;;;;-146.27;100.00;48371.69;5089588;28;20383;-72
2023/02/20 05:27:27;;;;;;;38.22;11.82;;;;;;;-146.27;100.00;48367.72;5091584;28;20032;-72
2023/02/20 05:29:54;;;;;;;35.42;11.32;;;;;;;-146.27;100.00;48391.63;5084152;28;20106;-71
2023/02/20 05:32:22;;;;;;;41.05;10.55;;;;;;;-146.27;100.00;48365.72;5090923;28;20032;-70
2023/02/20 05:34:48;;;;;;;32.97;11.98;;;;;;;-146.27;100.00;48343.81;5087526;28;20119;-71
2023/02/20 05:37:15;;;;;;;26.25;10.52;;;;;;;-146.27;100.00;48413.53;5087099;28;20137;-71
2023/02/20 05:39:40;;;;;;;29.67;10.43;;;;;;;-146.27;100.00;48351.78;5090494;28;20016;-72
2023/02/20 05:42:07;;;;;;;27.67;10.32;;;;;;;-146.27;100.00;48387.63;5092008;28;20494;-71
2023/02/20 05:44:32;;;;;;;26.70;10.43;;;;;;;-146.27;100.00;48395.59;5090002;28;20023;-71
2023/02/20 05:46:58;;;;;;;32.13;10.20;;;;;;;-146.27;100.00;48387.63;5086682;28;20028;-71
2023/02/20 05:49:24;;;;;;;31.95;10.23;;;;;;;-146.27;100.00;48367.72;5088215;28;20024;-72
2023/02/20 05:51:50;;;;;;;38.17;11.57;;;;;;;-146.27;100.00;48345.81;5083917;28;20460;-71
2023/02/20 05:54:16;;;;;;;25.27;10.38;;;;;;;-146.27;100.00;48331.88;5091564;28;20153;-72
2023/02/20 05:56:43;;;;;;;25.73;10.68;;;;;;;-146.27;100.00;48381.66;5085607;28;20172;-71
2023/02/20 05:59:09;;;;;;;24.35;10.80;;;;;;;-146.27;100.00;48367.72;5083306;28;20357;-71
2023/02/20 06:01:34;;;;;;;35.67;10.10;;;;;;;-146.27;100.00;48387.63;5082025;28;20035;-70
2023/02/20 06:04:00;;;;;;;24.55;10.70;;;;;;;-146.27;100.00;48399.59;5091380;28;20022;-72
2023/02/20 06:06:34;;;;;;;32.90;12.25;;;;;;;-146.27;100.00;48385.66;5091141;28;20044;-71
2023/02/20 06:09:00;;;;;;;24.85;11.32;;;;;;;-146.27;100.00;48371.69;5092123;28;20097;-71
2023/02/20 06:11:25;;;;;;;40.70;11.48;;;;;;;-146.27;100.00;48355.78;5089933;28;20468;-72
2023/02/20 06:13:50;;;;;;;26.80;11.77;;;;;;;-146.27;100.00;48387.63;5085781;28;20110;-72
2023/02/20 06:16:22;;;;;;;28.13;12.52;;;;;;;-146.27;100.00;48385.66;5090080;28;20056;-72
2023/02/20 06:18:48;;;;;;;34.50;11.77;;;;;;;-146.27;100.00;48395.59;5087002;28;20040;-71
2023/02/20 06:21:13;;;;;;;32.00;11.85;;;;;;;-146.27;100.00;48361.75;5081135;28;20034;-69
2023/02/20 06:23:41;;;;;;;29.65;10.48;;;;;;;-146.27;100.00;48359.75;5094129;28;20464;-70
2023/02/20 06:26:07;;;;;;;42.03;12.27;;;;;;;-146.27;100.00;48355.78;5097697;28;20028;-71
2023/02/20 06:28:32;;;;;;;45.63;12.70;;;;;;;-146.27;100.00;48393.63;5089080;28;20024;-72
2023/02/20 06:30:58;;;;;;;38.47;11.48;;;;;;;-146.27;100.00;48399.59;5090331;28;20031;-70
2023/02/20 06:33:23;;;;;;;37.75;11.13;;;;;;;-146.27;100.00;48341.81;5100026;28;21553;-70
2023/02/20 06:35:49;;;;;;;27.15;11.27;;;;;;;-146.27;100.00;48359.75;5097762;28;20467;-71
2023/02/20 06:38:14;;;;;;;25.05;10.90;;;;;;;-146.27;100.00;48375.69;5091227;28;20368;-72
2023/02/20 06:40:39;;;;;;;33.95;11.32;;;;;;;-146.27;100.00;48377.69;5094831;28;20073;-72
2023/02/20 06:43:05;;;;;;;29.08;10.32;;;;;;;-146.27;100.00;48353.78;5083011;28;20016;-72
2023/02/20 06:45:30;;;;;;;28.83;10.32;;;;;;;-146.27;100.00;48333.88;5083897;28;20031;-71
2023/02/20 06:47:56;;;;;;;32.13;10.80;;;;;;;-146.27;100.00;48367.72;5085118;28;20032;-70
2023/02/20 06:50:21;;;;;;;30.10;11.07;;;;;;;-146.27;100.00;48363.75;5083718;28;20097;-69
2023/02/20 06:52:47;;;;;;;30.08;10.77;;;;;;;-146.27;100.00;48383.66;5084978;28;20434;-70
2023/02/20 06:55:12;;;;;;;33.40;9.82;;;;;;;-146.27;100.00;48349.78;5084837;28;20528;-72
2023/02/20 06:57:38;;;;;;;32.03;9.45;;;;;;;-146.27;100.00;48347.81;5085991;28;20058;-72
2023/02/20 07:00:07;;;;;;;33.10;10.68;;;;;;;-146.27;100.00;48343.81;5087148;28;20380;-71
2023/02/20 07:02:33;;;;;;;16.75;7.78;;;;;;;-146.27;100.00;48395.59;5086843;28;20071;-70
2023/02/20 07:04:59;;;;;;;31.20;9.00;;;;;;;-146.27;100.00;48355.78;5091653;28;20024;-73
2023/02/20 07:07:24;;;;;;;29.20;8.40;;;;;;;-146.27;100.00;48357.75;5082843;28;20028;-71
2023/02/20 07:09:50;;;;;;;28.15;8.43;;;;;;;-146.27;100.00;48351.78;5087721;28;20119;-71
2023/02/20 07:12:15;;;;;;;29.58;9.35;;;;;;;-146.27;100.00;48369.72;5089333;28;20146;-72
2023/02/20 07:14:40;;;;;;;38.08;9.07;;;;;;;-146.27;100.00;48361.75;5084907;28;21170;-71
2023/02/20 07:17:06;;;;;;;36.13;8.80;;;;;;;-146.27;100.00;48375.69;5085580;28;20020;-72
2023/02/20 07:19:32;;;;;;;29.58;8.95;;;;;;;-146.27;100.00;48339.84;5081675;28;20020;-71
2023/02/20 07:21:57;;;;;;;25.98;8.98;;;;;;;-146.27;100.00;48355.78;5081448;28;20568;-72
2023/02/20 07:24:22;;;;;;;22.95;7.82;;;;;;;-146.27;100.00;48373.69;5083023;28;20020;-72
2023/02/20 07:26:48;;;;;;;27.48;8.35;;;;;;;-146.27;100.00;48419.50;5083101;28;20081;-72
2023/02/20 07:29:14;;;;;;;25.75;8.48;;;;;;;-146.27;100.00;48359.75;5081065;28;20065;-71
2023/02/20 07:31:40;;;;;;;29.10;9.30;;;;;;;-146.27;100.00;48341.81;5089802;28;20100;-71
2023/02/20 07:34:05;;;;;;;24.98;8.93;;;;;;;-146.27;100.00;48359.75;5091234;28;20024;-71
2023/02/20 07:36:31;;;;;;;29.27;9.30;;;;;;;-146.27;100.00;48383.66;5087779;28;20024;-70
2023/02/20 07:38:58;;;;;;;19.17;8.43;;;;;;;-146.27;100.00;48355.78;5079190;28;20379;-72
2023/02/20 07:41:28;;;;;;;24.73;8.15;;;;;;;-146.27;100.00;48367.72;5080934;28;20022;-71
2023/02/20 07:43:54;;;;;;;31.67;9.27;;;;;;;-146.27;100.00;48373.69;5091300;28;20047;-73
2023/02/20 07:46:19;;;;;;;22.70;8.43;;;;;;;-146.27;100.00;48345.81;5083770;28;20025;-72
2023/02/20 07:48:45;;;;;;;29.58;8.48;;;;;;;-146.27;100.00;48379.66;5084404;28;20054;-72
2023/02/20 07:51:10;;;;;;;24.80;9.30;;;;;;;-146.27;100.00;48369.72;5101653;28;20047;-71
2023/02/20 07:53:35;;;;;;;29.27;10.38;;;;;;;-146.27;100.00;48363.75;5093612;28;20039;-72
2023/02/20 07:56:01;;;;;;;29.88;9.15;;;;;;;-146.27;100.00;48373.69;5090808;28;20016;-71
2023/02/20 07:58:26;;;;;;;22.00;9.32;;;;;;;-146.27;100.00;48351.78;5075255;28;20028;-72
2023/02/20 08:00:52;;;;;;;29.10;9.13;;;;;;;-146.27;100.00;48359.75;5074736;28;20028;-71
2023/02/20 08:03:18;;;;;;;32.80;10.07;;;;;;;-146.27;100.00;48359.75;5085374;28;20064;-71
2023/02/20 08:05:44;;;;;;;24.55;9.27;;;;;;;-146.27;100.00;48407.56;5085336;28;20068;-72
2023/02/20 08:08:09;;;;;;;37.85;9.88;;;;;;;-146.27;100.00;48355.78;5066750;28;20490;-71
2023/02/20 08:10:35;;;;;;;20.90;9.48;;;;;;;-146.27;100.00;48363.75;5063365;28;20028;-71
2023/02/20 08:13:01;;;;;;;35.20;10.43;;;;;;;-146.27;100.00;48367.72;5087383;28;20032;-72
2023/02/20 08:15:26;;;;;;;24.20;10.27;;;;;;;-146.27;100.00;48407.56;5079806;28;20112;-72
2023/02/20 08:17:52;;;;;;;26.70;10.75;;;;;;;-146.27;100.00;48367.72;5077894;28;20551;-71
2023/02/20 08:20:18;;;;;;;19.83;10.07;;;;;;;-146.27;100.00;48331.88;5072966;28;20445;-71
2023/02/20 08:22:45;;;;;;;29.80;10.80;;;;;;;-146.27;100.00;48339.84;5090462;28;20471;-72
2023/02/20 08:25:11;;;;;;;20.73;10.35;;;;;;;-146.27;100.00;48375.69;5084888;28;20548;-70
2023/02/20 08:27:42;;;;;;;21.42;10.18;;;;;;;-146.27;100.00;48361.75;5087332;28;20032;-71
2023/02/20 08:30:17;;;;;;;25.77;12.55;;;;;;;-146.27;100.00;48363.75;5093247;28;20045;-72
2023/02/20 08:32:42;;;;;;;27.40;10.57;;;;;;;-146.27;100.00;48389.63;5074244;28;20032;-71
2023/02/20 08:35:08;;;;;;;21.30;9.32;;;;;;;-146.27;100.00;48351.78;5083234;28;20036;-72
2023/02/20 08:37:33;;;;;;;25.45;9.77;;;;;;;-146.27;100.00;48343.81;5092033;28;20024;-71
2023/02/20 08:39:59;;;;;;;24.20;10.40;;;;;;;-146.27;100.00;48373.69;5088610;28;20028;-71
2023/02/20 08:42:25;;;;;;;26.17;10.77;;;;;;;-146.27;100.00;48381.66;5087957;28;20078;-71
2023/02/20 08:44:50;;;;;;;27.80;9.50;;;;;;;-146.27;100.00;48341.81;5086821;28;20430;-72
2023/02/20 08:47:19;;;;;;;24.52;9.43;;;;;;;-146.27;100.00;48379.66;5073601;28;20024;-72
2023/02/20 08:49:46;;;;;;;18.48;8.15;;;;;;;-146.27;100.00;48365.72;5055492;28;20027;-71
2023/02/20 08:52:12;;;;;;;19.40;8.73;;;;;;;-146.27;100.00;48375.69;5081791;28;20028;-71
2023/02/20 08:54:37;;;;;;;25.48;8.52;;;;;;;-146.27;100.00;48381.66;5087338;28;20054;-70
2023/02/20 08:57:03;;;;;;;20.08;8.85;;;;;;;-146.27;100.00;48353.78;5087861;28;20047;-72
2023/02/20 08:59:31;;;;;;;16.48;7.88;;;;;;;-146.27;100.00;48345.81;5074871;28;21303;-72
2023/02/20 09:01:56;;;;;;;20.98;7.55;;;;;;;-146.27;100.00;48379.66;5072784;28;20055;-72
2023/02/20 09:04:22;;;;;;;17.95;7.00;;;;;;;-146.27;100.00;48375.69;5073631;28;20131;-71
2023/02/20 09:06:48;;;;;;;19.75;7.35;;;;;;;-146.27;100.00;48359.75;5072998;28;20062;-71
2023/02/20 09:09:13;;;;;;;19.52;7.82;;;;;;;-146.27;100.00;48369.72;5081732;28;20098;-72
2023/02/20 09:11:38;;;;;;;16.23;6.90;;;;;;;-146.27;100.00;48359.75;5096102;28;20024;-71
2023/02/20 09:14:04;;;;;;;19.52;7.28;;;;;;;-146.27;100.00;48359.75;5095427;28;20028;-71
2023/02/20 09:16:29;;;;;;;17.02;6.72;;;;;;;-146.27;100.00;48377.69;5092731;28;20435;-72
2023/02/20 09:18:55;;;;;;;16.05;6.13;;;;;;;-146.27;100.00;48351.78;5084479;28;20357;-72
2023/02/20 09:21:22;;;;;;;17.70;7.10;;;;;;;-146.27;100.00;48339.84;5089986;28;20557;-71
2023/02/20 09:23:48;;;;;;;15.20;6.78;;;;;;;-146.27;100.00;48367.72;5085242;28;20380;-72
2023/02/20 09:26:13;;;;;;;15.32;6.82;;;;;;;-146.27;100.00;48347.81;5073330;28;20031;-72
2023/02/20 09:28:39;;;;;;;20.80;7.00;;;;;;;-146.27;100.00;48341.81;5073820;28;20100;-70
2023/02/20 09:31:05;;;;;;;13.57;6.35;;;;;;;-146.27;100.00;48369.72;5078746;28;20688;-72
2023/02/20 09:33:31;;;;;;;21.77;7.90;;;;;;;-146.27;100.00;48375.69;5073879;28;20392;-71
2023/02/20 09:35:56;;;;;;;16.80;6.50;;;;;;;-146.27;100.00;48363.75;5089708;28;20026;-71
2023/02/20 09:38:25;;;;;;;15.05;7.22;;;;;;;-146.27;100.00;48325.91;5092496;28;20051;-73
2023/02/20 09:40:54;;;;;;;15.15;6.63;;;;;;;-146.27;100.00;48367.72;5088245;28;20119;-72
2023/02/20 09:43:29;;;;;;;18.85;6.43;;;;;;;-146.27;100.00;48391.63;5076593;28;20036;-72
2023/02/20 09:46:01;;;;;;;12.32;5.18;;;;;;;-146.27;100.00;48385.66;5075061;28;20033;-72
2023/02/20 09:48:52;;;;;;;13.13;5.15;;;;;;;-146.27;100.00;48351.78;5077226;28;20476;-71
2023/02/20 09:51:21;;;;;;;16.23;5.68;;;;;;;-146.27;100.00;48359.75;5081607;28;20032;-70
2023/02/20 09:54:01;;;;;;;18.33;5.97;;;;;;;-146.27;100.00;48351.78;5091440;28;20468;-73
2023/02/20 09:56:32;;;;;;;16.27;4.53;;;;;;;-146.27;100.00;48363.75;5077072;28;20131;-72
2023/02/20 09:59:11;;;;;;;9.85;4.90;;;;;;;-146.27;100.00;48353.78;5078495;28;20081;-72
2023/02/20 10:01:41;;;;;;;12.48;4.97;;;;;;;-146.27;100.00;48359.75;5073516;28;20029;-71
2023/02/20 10:04:13;;;;;;;11.98;5.22;;;;;;;-146.27;100.00;48327.88;5082722;28;20012;-70
2023/02/20 10:06:39;;;;;;;10.70;6.05;;;;;;;-146.27;100.00;48347.81;5088636;28;20147;-72
2023/02/20 10:09:10;;;;;;;17.02;6.15;;;;;;;-146.27;100.00;48345.81;5090042;28;20038;-71
2023/02/20 10:11:45;;;;;;;16.38;7.55;;;;;;;-146.27;100.00;48399.59;5091294;28;20550;-71
2023/02/20 10:14:30;;;;;;;12.32;6.50;;;;;;;-146.27;100.00;48347.81;5088364;28;20036;-71
2023/02/20 10:17:14;;;;;;;19.80;7.88;;;;;;;-146.27;100.00;48357.75;5085784;28;20054;-72
2023/02/20 10:20:01;;;;;;;16.60;6.80;;;;;;;-146.27;100.00;48347.81;5072418;28;20079;-72
2023/02/20 10:22:41;;;;;;;12.85;6.13;;;;;;;-146.27;100.00;48361.75;5073346;28;20039;-70
2023/02/20 10:25:09;;;;;;;17.52;7.38;;;;;;;-146.27;100.00;48359.75;5084028;28;20008;-70
2023/02/20 10:28:00;;;;;;;18.65;7.28;;;;;;;-146.27;100.00;48393.63;5074388;28;20020;-71
2023/02/20 10:30:30;;;;;;;20.20;6.88;;;;;;;-146.27;100.00;48391.63;5069911;28;20071;-70
2023/02/20 10:33:10;;;;;;;12.75;6.32;;;;;;;-146.27;100.00;48383.66;5068757;28;20028;-70
2023/02/20 10:35:43;;;;;;;18.90;7.95;;;;;;;-146.27;100.00;48367.72;5088104;28;20032;-71
2023/02/20 10:38:12;;;;;;;17.55;7.05;;;;;;;-146.27;100.00;48351.78;5070728;28;20054;-69
2023/02/20 10:40:42;;;;;;;18.48;6.70;;;;;;;-146.27;100.00;48331.88;5071666;28;20025;-71
2023/02/20 10:43:35;;;;;;;12.60;6.32;;;;;;;-146.27;100.00;48391.63;5091922;28;20020;-70
2023/02/20 10:46:14;;;;;;;14.23;6.05;;;;;;;-146.27;100.00;48377.69;5079102;28;20552;-71
2023/02/20 10:48:41;;;;;;;16.17;7.07;;;;;;;-146.27;100.00;48341.81;5076287;28;20028;-72
2023/02/20 10:51:23;;;;;;;13.70;5.65;;;;;;;-146.27;100.00;48387.63;5071827;28;20361;-70
2023/02/20 10:54:10;;;;;;;11.10;5.40;;;;;;;-146.27;100.00;48345.81;5072306;28;20101;-71
2023/02/20 10:56:44;;;;;;;9.90;4.63;;;;;;;-146.27;100.00;48357.75;5072036;28;20027;-71
2023/02/20 10:59:09;;;;;;;;;;;;;;;-146.27;100.00;48341.81;5073493;28;20120;-70
2023/02/20 11:01:36;;;;;;;12.70;6.50;;;;;;;-146.27;100.00;48351.78;5071936;28;20363;-70
2023/02/20 11:04:15;;;;;;;20.77;6.18;;;;;;;-146.27;100.00;48357.75;5072222;28;20312;-72
2023/02/20 11:06:46;;;;;;;8.48;5.47;;;;;;;-146.27;100.00;48367.72;5071679;28;20056;-70
2023/02/20 11:09:12;;;;;;;11.98;5.05;;;;;;;-146.27;100.00;48379.66;5070318;28;20044;-70
2023/02/20 11:11:43;;;;;;;15.35;6.40;;;;;;;-146.27;100.00;48383.66;5083131;28;20379;-69
2023/02/20 11:14:22;;;;;;;15.48;5.57;;;;;;;-146.27;100.00;48371.69;5076711;28;20036;-70
2023/02/20 11:17:19;;;;;;;16.55;5.70;;;;;;;-146.27;100.00;48351.78;5073847;28;20027;-70
2023/02/20 11:19:56;;;;;;;18.65;5.75;;;;;;;-146.27;100.00;48395.59;5072035;28;20064;-70
2023/02/20 11:22:42;;;;;;;15.50;5.10;;;;;;;-146.27;100.00;48383.66;5091869;28;20107;-71
2023/02/20 11:25:15;;;;;;;17.80;5.18;;;;;;;-146.27;100.00;48371.69;5088645;28;20130;-70
2023/02/20 11:27:41;;;;;;;13.20;5.40;;;;;;;-146.27;100.00;48395.59;5076025;28;20123;-71